Daal 2 — MCCO2 — position and weather

sailwx.info

Track history (hours):
 
Tides and Currents Weather Stations Pressure Air Temp Water Temp Dewpoint Dewpoint Depression Visibility Wind Speed Wind Dir Waves Ship Positions

Daal 2

Last reported at 2017-Dec-10 15:15 UTC. Time now 2018-Jan-23 10:05 UTC.
Position N 28°08' W 015°26'.
Warning: this ship's position is 43 days out of date.

Length 11 m.

Type: Sailing vessel. MMSI: 232012125.

Date/timePositionNaut miles runAvg speedWind from/ knotsBaromVisibWave heightAir tempDewpointWater temp
2017-Dec-10 15:15N 28°08' W 015°26'0 0.0
2017-Dec-10 15:00N 28°08' W 015°26'1 2.7
2017-Dec-10 14:30N 28°07' W 015°24'3 5.3
2017-Dec-10 14:00N 28°10' W 015°24'2 4.1
2017-Dec-10 13:30N 28°11' W 015°25'2 3.7
2017-Dec-10 13:00N 28°10' W 015°27'1 2.0
2017-Dec-10 12:30N 28°09' W 015°26'0 0.0
2017-Dec-10 12:00N 28°09' W 015°26'0 0.0
2017-Dec-10 11:30N 28°09' W 015°26'0 0.0
2017-Dec-10 11:00N 28°09' W 015°26'0 0.0
2017-Dec-10 10:30N 28°09' W 015°26'0 0.0
2017-Dec-10 09:51N 28°09' W 015°26'0 0.0
2017-Dec-10 09:21N 28°09' W 015°26'0 0.0
2017-Dec-10 08:51N 28°09' W 015°26'0 0.0
2017-Dec-10 08:24N 28°09' W 015°26'0 0.0
2017-Dec-10 07:54N 28°09' W 015°26'0 0.0
2017-Dec-10 07:24N 28°09' W 015°26'0 0.0
2017-Dec-10 06:54N 28°09' W 015°26'0 0.0
2017-Dec-10 06:24N 28°09' W 015°26'0 0.0
2017-Dec-10 05:57N 28°09' W 015°26'0 0.0
2017-Dec-10 05:27N 28°09' W 015°26'0 0.0
2017-Dec-10 04:57N 28°09' W 015°26'0 0.0
2017-Dec-10 04:27N 28°09' W 015°26'0 0.0
2017-Dec-10 03:57N 28°09' W 015°26'0 0.0
2017-Dec-10 03:30N 28°09' W 015°26'0 0.0
2017-Dec-10 03:00N 28°09' W 015°26'0 0.0
2017-Dec-10 02:30N 28°09' W 015°26'0 0.0
2017-Dec-10 02:00N 28°09' W 015°26'0 0.0
2017-Dec-10 01:30N 28°09' W 015°26'0 0.0
2017-Dec-10 01:00N 28°09' W 015°26'0 0.0
2017-Dec-10 00:30N 28°09' W 015°26'0 0.0
2017-Dec-10 00:00N 28°09' W 015°26'0 0.0
2017-Dec-09 23:30N 28°09' W 015°26'0 0.0
2017-Dec-09 23:00N 28°09' W 015°26'0 0.0
2017-Dec-09 22:30N 28°09' W 015°26'0 0.0
2017-Dec-09 22:00N 28°09' W 015°26'0 0.0
2017-Dec-09 21:30N 28°09' W 015°26'0 0.0
2017-Dec-09 21:00N 28°09' W 015°26'0 0.0
2017-Dec-09 20:21N 28°09' W 015°26'0 0.0
2017-Dec-09 19:51N 28°09' W 015°26'0 0.0
2017-Dec-09 19:21N 28°09' W 015°26'0 0.0
2017-Dec-09 18:54N 28°09' W 015°26'0 0.0
2017-Dec-09 18:24N 28°09' W 015°26'0 0.0
2017-Dec-09 17:54N 28°09' W 015°26'0 0.0
2017-Dec-09 17:24N 28°09' W 015°26'0 0.1
2017-Dec-09 16:59N 28°09' W 015°26'0 0.0
2017-Dec-09 16:29N 28°09' W 015°26'0 0.0
2017-Dec-09 15:56N 28°09' W 015°26'0 0.0
2017-Dec-09 15:29N 28°09' W 015°26'0 0.0
2017-Dec-09 14:59N 28°09' W 015°26'0 0.0
2017-Dec-09 14:29N 28°09' W 015°26'0 0.0
2017-Dec-09 13:50N 28°09' W 015°26'0 0.0
2017-Dec-09 13:29N 28°09' W 015°26'0 0.0
2017-Dec-09 12:59N 28°09' W 015°26'0 0.0
2017-Dec-09 12:20N 28°09' W 015°26'0 0.0
2017-Dec-09 11:47N 28°09' W 015°26'0 0.0
2017-Dec-09 11:20N 28°09' W 015°26'0 0.0
2017-Dec-09 10:53N 28°09' W 015°26'0 0.5
2017-Dec-09 10:26N 28°09' W 015°26'2 4.2
2017-Dec-09 09:57N 28°11' W 015°26'1 2.6
2017-Dec-09 09:27N 28°11' W 015°24'1 2.5
2017-Dec-09 08:56N 28°10' W 015°23'2 4.7
2017-Dec-09 08:26N 28°08' W 015°24'1 2.7
2017-Dec-09 07:56N 28°08' W 015°25'0 0.5
2017-Dec-09 07:29N 28°08' W 015°26'  
Track history (hours):
 
Tides and Currents Weather Stations Pressure Air Temp Water Temp Dewpoint Dewpoint Depression Visibility Wind Speed Wind Dir Waves Ship Positions

Daal 2

Last reported at 2017-Dec-10 15:15 UTC. Time now 2018-Jan-23 10:05 UTC.
Position N 28°08' W 015°26'.
Warning: this ship's position is 43 days out of date.

Length 11 m.

Type: Sailing vessel. MMSI: 232012125.

Date/timePositionNaut miles runAvg speedWind from/ knotsBaromVisibWave heightAir tempDewpointWater temp
2017-Dec-10 15:15N 28°08' W 015°26'0 0.0
2017-Dec-10 15:00N 28°08' W 015°26'1 2.7
2017-Dec-10 14:30N 28°07' W 015°24'3 5.3
2017-Dec-10 14:00N 28°10' W 015°24'2 4.1
2017-Dec-10 13:30N 28°11' W 015°25'2 3.7
2017-Dec-10 13:00N 28°10' W 015°27'1 2.0
2017-Dec-10 12:30N 28°09' W 015°26'0 0.0
2017-Dec-10 12:00N 28°09' W 015°26'0 0.0
2017-Dec-10 11:30N 28°09' W 015°26'0 0.0
2017-Dec-10 11:00N 28°09' W 015°26'0 0.0
2017-Dec-10 10:30N 28°09' W 015°26'0 0.0
2017-Dec-10 09:51N 28°09' W 015°26'0 0.0
2017-Dec-10 09:21N 28°09' W 015°26'0 0.0
2017-Dec-10 08:51N 28°09' W 015°26'0 0.0
2017-Dec-10 08:24N 28°09' W 015°26'0 0.0
2017-Dec-10 07:54N 28°09' W 015°26'0 0.0
2017-Dec-10 07:24N 28°09' W 015°26'0 0.0
2017-Dec-10 06:54N 28°09' W 015°26'0 0.0
2017-Dec-10 06:24N 28°09' W 015°26'0 0.0
2017-Dec-10 05:57N 28°09' W 015°26'0 0.0
2017-Dec-10 05:27N 28°09' W 015°26'0 0.0
2017-Dec-10 04:57N 28°09' W 015°26'0 0.0
2017-Dec-10 04:27N 28°09' W 015°26'0 0.0
2017-Dec-10 03:57N 28°09' W 015°26'0 0.0
2017-Dec-10 03:30N 28°09' W 015°26'0 0.0
2017-Dec-10 03:00N 28°09' W 015°26'0 0.0
2017-Dec-10 02:30N 28°09' W 015°26'0 0.0
2017-Dec-10 02:00N 28°09' W 015°26'0 0.0
2017-Dec-10 01:30N 28°09' W 015°26'0 0.0
2017-Dec-10 01:00N 28°09' W 015°26'0 0.0
2017-Dec-10 00:30N 28°09' W 015°26'0 0.0
2017-Dec-10 00:00N 28°09' W 015°26'0 0.0
2017-Dec-09 23:30N 28°09' W 015°26'0 0.0
2017-Dec-09 23:00N 28°09' W 015°26'0 0.0
2017-Dec-09 22:30N 28°09' W 015°26'0 0.0
2017-Dec-09 22:00N 28°09' W 015°26'0 0.0
2017-Dec-09 21:30N 28°09' W 015°26'0 0.0
2017-Dec-09 21:00N 28°09' W 015°26'0 0.0
2017-Dec-09 20:21N 28°09' W 015°26'0 0.0
2017-Dec-09 19:51N 28°09' W 015°26'0 0.0
2017-Dec-09 19:21N 28°09' W 015°26'0 0.0
2017-Dec-09 18:54N 28°09' W 015°26'0 0.0
2017-Dec-09 18:24N 28°09' W 015°26'0 0.0
2017-Dec-09 17:54N 28°09' W 015°26'0 0.0
2017-Dec-09 17:24N 28°09' W 015°26'0 0.1
2017-Dec-09 16:59N 28°09' W 015°26'0 0.0
2017-Dec-09 16:29N 28°09' W 015°26'0 0.0
2017-Dec-09 15:56N 28°09' W 015°26'0 0.0
2017-Dec-09 15:29N 28°09' W 015°26'0 0.0
2017-Dec-09 14:59N 28°09' W 015°26'0 0.0
2017-Dec-09 14:29N 28°09' W 015°26'0 0.0
2017-Dec-09 13:50N 28°09' W 015°26'0 0.0
2017-Dec-09 13:29N 28°09' W 015°26'0 0.0
2017-Dec-09 12:59N 28°09' W 015°26'0 0.0
2017-Dec-09 12:20N 28°09' W 015°26'0 0.0
2017-Dec-09 11:47N 28°09' W 015°26'0 0.0
2017-Dec-09 11:20N 28°09' W 015°26'0 0.0
2017-Dec-09 10:53N 28°09' W 015°26'0 0.5
2017-Dec-09 10:26N 28°09' W 015°26'2 4.2
2017-Dec-09 09:57N 28°11' W 015°26'1 2.6
2017-Dec-09 09:27N 28°11' W 015°24'1 2.5
2017-Dec-09 08:56N 28°10' W 015°23'2 4.7
2017-Dec-09 08:26N 28°08' W 015°24'1 2.7
2017-Dec-09 07:56N 28°08' W 015°25'0 0.5
2017-Dec-09 07:29N 28°08' W 015°26'  

Dump ship's entire track history